createdAt,value
2022-07-29T00:04:15.981Z,4.00
2022-07-29T00:09:16.467Z,3.80
2022-07-29T00:14:16.374Z,4.20
2022-07-29T00:19:20.291Z,3.50
2022-07-29T00:24:16.146Z,3.70
2022-07-29T00:29:33.759Z,3.60
2022-07-29T00:34:25.671Z,3.70
2022-07-29T00:39:15.594Z,3.90
2022-07-29T00:44:16.207Z,3.20
2022-07-29T00:49:15.800Z,3.90
2022-07-29T00:54:16.260Z,3.90
2022-07-29T00:59:15.567Z,4.30
2022-07-29T01:04:16.513Z,3.50
2022-07-29T01:09:17.222Z,3.20
2022-07-29T01:14:16.665Z,3.20
2022-07-29T01:19:33.893Z,3.50
2022-07-29T01:24:32.827Z,3.60
2022-07-29T01:29:23.558Z,3.60
2022-07-29T01:34:27.186Z,3.10
2022-07-29T01:39:19.940Z,3.50
2022-07-29T01:44:30.739Z,3.40
2022-07-29T01:49:20.233Z,3.10
2022-07-29T01:54:20.246Z,3.50
2022-07-29T01:59:17.569Z,3.20
2022-07-29T02:04:29.765Z,2.70
2022-07-29T02:09:17.670Z,3.30
2022-07-29T02:14:19.023Z,3.10
2022-07-29T02:19:18.435Z,3.50
2022-07-29T02:24:18.933Z,3.10
2022-07-29T02:29:19.894Z,3.20
2022-07-29T02:34:18.461Z,3.10
2022-07-29T02:39:17.364Z,3.00
2022-07-29T02:44:18.336Z,20.60
2022-07-29T02:49:19.427Z,53.20
2022-07-29T02:54:22.488Z,34.20
2022-07-29T02:59:26.137Z,12.90
2022-07-29T03:04:17.595Z,3.80
2022-07-29T03:09:20.906Z,3.20
2022-07-29T03:14:19.625Z,2.90
2022-07-29T03:19:18.560Z,3.30
2022-07-29T03:24:27.688Z,3.20
2022-07-29T03:29:15.436Z,3.30
2022-07-29T03:34:17.072Z,3.00
2022-07-29T03:39:20.530Z,2.90
2022-07-29T03:44:18.456Z,3.20
2022-07-29T03:49:17.122Z,2.90
2022-07-29T03:54:16.596Z,2.70
2022-07-29T03:59:18.006Z,3.00
2022-07-29T04:04:16.923Z,2.70
2022-07-29T04:09:15.609Z,3.00
2022-07-29T04:14:15.887Z,2.50
2022-07-29T04:19:16.204Z,2.50
2022-07-29T04:24:16.521Z,2.70
2022-07-29T04:29:15.548Z,2.40
2022-07-29T04:34:16.492Z,2.50
2022-07-29T04:39:20.646Z,2.30
2022-07-29T04:44:18.277Z,2.60
2022-07-29T04:49:15.850Z,2.20
2022-07-29T04:54:16.020Z,1.90
2022-07-29T04:59:16.115Z,1.90
2022-07-29T04:59:22.470Z,1.90
2022-07-29T05:02:35.589Z,1.90
2022-07-29T05:04:15.590Z,1.90
2022-07-29T05:05:15.253Z,1.90
2022-07-29T05:08:35.300Z,1.70
2022-07-29T05:09:15.453Z,1.70
2022-07-29T05:14:16.321Z,1.70
2022-07-29T05:19:15.450Z,1.90
2022-07-29T05:24:15.676Z,1.80
2022-07-29T05:29:44.892Z,1.40
2022-07-29T05:34:16.252Z,1.80
2022-07-29T05:37:15.370Z,1.80
2022-07-29T05:39:15.441Z,1.80
2022-07-29T05:43:53.770Z,1.40
2022-07-29T05:44:15.772Z,1.40
2022-07-29T05:46:03.649Z,1.50
2022-07-29T05:49:27.102Z,1.50
2022-07-29T05:54:16.285Z,1.20
2022-07-29T05:59:18.224Z,1.70
2022-07-29T06:01:21.438Z,1.30
2022-07-29T06:04:15.711Z,1.30
2022-07-29T06:09:18.494Z,1.50
2022-07-29T06:09:38.221Z,1.50
2022-07-29T06:14:16.040Z,1.30
2022-07-29T06:18:13.586Z,1.20
2022-07-29T06:19:15.743Z,1.20
2022-07-29T06:19:40.263Z,1.20
2022-07-29T06:24:16.465Z,1.60
2022-07-29T06:26:37.823Z,1.30
2022-07-29T06:29:15.733Z,1.30
2022-07-29T06:30:52.351Z,1.70
2022-07-29T06:34:16.490Z,1.70
2022-07-29T06:36:43.725Z,1.10
2022-07-29T06:39:15.476Z,1.10
2022-07-29T06:44:17.085Z,1.40
2022-07-29T06:49:15.592Z,1.20
2022-07-29T06:54:15.953Z,1.00
2022-07-29T06:55:07.819Z,1.00
2022-07-29T06:59:15.489Z,1.20
2022-07-29T07:04:15.875Z,1.40
2022-07-29T07:09:15.628Z,1.10
2022-07-29T07:14:15.750Z,1.00
2022-07-29T07:19:15.773Z,1.10
2022-07-29T07:24:16.107Z,1.10
2022-07-29T07:29:15.803Z,0.90
2022-07-29T07:34:29.308Z,1.30
2022-07-29T07:39:15.569Z,0.70
2022-07-29T07:44:16.205Z,0.70
2022-07-29T07:49:16.162Z,1.00
2022-07-29T07:54:15.988Z,1.10
2022-07-29T07:59:15.878Z,0.90
2022-07-29T08:04:16.665Z,1.50
2022-07-29T08:09:28.805Z,0.80
2022-07-29T08:14:15.793Z,0.90
2022-07-29T08:19:16.142Z,0.80
2022-07-29T08:24:25.701Z,1.30
2022-07-29T08:29:19.912Z,1.10
2022-07-29T08:34:16.717Z,0.70
2022-07-29T08:39:15.361Z,0.90
2022-07-29T08:44:16.363Z,0.90
2022-07-29T08:49:16.353Z,0.80
2022-07-29T08:54:17.729Z,0.90
2022-07-29T08:59:21.991Z,0.90
2022-07-29T09:04:16.237Z,0.70
2022-07-29T09:09:15.555Z,1.00
2022-07-29T09:14:16.749Z,0.80
2022-07-29T09:19:26.207Z,0.90
2022-07-29T09:24:16.037Z,0.70
2022-07-29T09:29:17.705Z,1.10
2022-07-29T09:34:20.810Z,0.90
2022-07-29T09:39:27.643Z,0.70
2022-07-29T09:44:16.266Z,0.90
2022-07-29T09:49:15.437Z,0.70
2022-07-29T09:54:25.610Z,0.80
2022-07-29T09:59:15.928Z,0.80
2022-07-29T10:09:18.278Z,0.80
2022-07-29T10:14:15.516Z,0.80
2022-07-29T10:19:17.338Z,1.00
2022-07-29T10:24:15.809Z,0.80
2022-07-29T10:29:15.614Z,0.90
2022-07-29T10:34:23.353Z,0.90
2022-07-29T10:39:23.947Z,0.80
2022-07-29T10:44:19.537Z,0.70
2022-07-29T10:49:17.532Z,0.80
2022-07-29T10:54:15.782Z,0.80
2022-07-29T10:59:24.217Z,1.00
2022-07-29T11:04:16.103Z,0.80
2022-07-29T11:09:17.552Z,0.80
2022-07-29T11:14:17.442Z,1.00
2022-07-29T11:19:26.351Z,1.00
2022-07-29T11:24:18.718Z,0.80
2022-07-29T11:29:20.078Z,0.90
2022-07-29T11:34:21.295Z,0.80
2022-07-29T11:39:25.723Z,0.90
2022-07-29T11:44:16.153Z,0.80
2022-07-29T11:49:22.075Z,0.60
2022-07-29T11:59:17.729Z,0.70
2022-07-29T12:04:15.336Z,0.80
2022-07-29T12:07:03.582Z,0.70
2022-07-29T12:09:15.766Z,0.70
2022-07-29T12:14:26.250Z,1.00
2022-07-29T12:19:15.193Z,1.00
2022-07-29T12:24:16.946Z,0.80
2022-07-29T12:29:20.175Z,0.70
2022-07-29T12:34:16.068Z,0.80
2022-07-29T12:39:16.173Z,0.80
2022-07-29T12:44:15.312Z,0.90
2022-07-29T12:49:24.886Z,0.70
2022-07-29T12:54:15.717Z,1.00
2022-07-29T12:59:22.146Z,1.00
2022-07-29T13:04:26.735Z,1.00
2022-07-29T13:09:18.048Z,0.80
2022-07-29T13:14:30.573Z,0.90
2022-07-29T13:19:15.181Z,0.60
2022-07-29T13:24:19.783Z,1.10
2022-07-29T13:29:15.166Z,0.80
2022-07-29T13:34:15.448Z,0.60
2022-07-29T13:39:16.403Z,0.70
2022-07-29T13:44:15.197Z,0.70
2022-07-29T13:49:15.404Z,0.70
2022-07-29T13:52:10.886Z,0.70
2022-07-29T13:54:15.718Z,1.00
2022-07-29T13:59:15.370Z,0.90
2022-07-29T14:04:15.668Z,0.90
2022-07-29T14:04:23.180Z,0.90
2022-07-29T14:06:47.243Z,0.90
2022-07-29T14:09:21.260Z,0.80
2022-07-29T14:10:27.165Z,0.80
2022-07-29T14:12:45.330Z,0.80
2022-07-29T14:14:15.228Z,1.00
2022-07-29T14:19:15.481Z,0.70
2022-07-29T14:22:09.298Z,0.70
2022-07-29T14:24:22.927Z,0.80
2022-07-29T14:27:39.203Z,0.80
2022-07-29T14:29:15.164Z,0.70
2022-07-29T14:31:52.398Z,0.70
2022-07-29T14:34:15.727Z,0.60
2022-07-29T14:39:16.498Z,0.70
2022-07-29T14:44:15.542Z,0.80
2022-07-29T14:49:15.541Z,0.70
2022-07-29T14:54:15.197Z,1.50
2022-07-29T14:59:15.888Z,0.80
2022-07-29T15:04:15.197Z,1.10
2022-07-29T15:09:15.402Z,1.10
2022-07-29T15:14:16.373Z,0.80
2022-07-29T15:19:15.222Z,1.20
2022-07-29T15:24:15.998Z,0.80
2022-07-29T15:29:15.894Z,0.80
2022-07-29T15:34:15.595Z,0.90
2022-07-29T15:39:15.171Z,1.00
2022-07-29T15:44:16.087Z,0.70
2022-07-29T15:49:20.745Z,0.80
2022-07-29T15:54:16.582Z,0.80
2022-07-29T15:59:22.525Z,0.90
2022-07-29T16:04:16.324Z,0.80
2022-07-29T16:09:16.174Z,0.60
2022-07-29T16:14:16.271Z,0.60
2022-07-29T16:19:15.210Z,0.90
2022-07-29T16:24:15.303Z,1.00
2022-07-29T16:29:17.124Z,1.00
2022-07-29T16:34:15.118Z,0.80
2022-07-29T16:39:15.087Z,1.00
2022-07-29T16:44:15.857Z,1.20
2022-07-29T16:49:19.507Z,0.70
2022-07-29T16:54:15.481Z,0.80
2022-07-29T16:59:15.327Z,0.80
2022-07-29T17:04:15.273Z,0.70
2022-07-29T17:09:15.551Z,1.00
2022-07-29T17:14:15.714Z,0.90
2022-07-29T17:19:15.039Z,1.00
2022-07-29T17:24:18.139Z,0.90
2022-07-29T17:29:16.106Z,1.20
2022-07-29T17:34:15.557Z,1.00
2022-07-29T17:34:53.113Z,1.00
2022-07-29T17:37:03.703Z,1.00
2022-07-29T17:39:15.295Z,1.10
2022-07-29T17:41:45.703Z,1.10
2022-07-29T17:44:15.135Z,1.10
2022-07-29T17:46:59.509Z,1.10
2022-07-29T17:48:48.535Z,1.00
2022-07-29T17:49:15.348Z,1.00
2022-07-29T17:52:19.486Z,1.00
2022-07-29T17:54:15.276Z,1.00
2022-07-29T17:55:02.597Z,1.00
2022-07-29T17:59:15.770Z,1.50
2022-07-29T18:02:13.663Z,1.50
2022-07-29T18:04:19.094Z,1.20
2022-07-29T18:04:22.149Z,1.20
2022-07-29T18:04:22.735Z,1.20
2022-07-29T18:07:13.099Z,1.20
2022-07-29T18:09:15.435Z,1.30
2022-07-29T18:14:16.059Z,1.60
2022-07-29T18:19:15.607Z,1.50
2022-07-29T18:21:15.097Z,1.50
2022-07-29T18:24:15.049Z,1.90
2022-07-29T18:28:19.680Z,1.60
2022-07-29T18:29:15.116Z,1.60
2022-07-29T18:31:06.386Z,1.60
2022-07-29T18:34:16.041Z,1.70
2022-07-29T18:39:20.056Z,1.80
2022-07-29T18:44:16.624Z,2.10
2022-07-29T18:49:19.569Z,2.60
2022-07-29T18:52:13.143Z,2.60
2022-07-29T18:54:16.380Z,2.10
2022-07-29T18:59:15.948Z,1.60
2022-07-29T19:04:16.558Z,1.40
2022-07-29T19:09:16.241Z,1.60
2022-07-29T19:14:15.248Z,1.70
2022-07-29T19:19:16.138Z,1.80
2022-07-29T19:24:15.594Z,1.50
2022-07-29T19:29:19.163Z,1.50
2022-07-29T19:34:15.114Z,1.40
2022-07-29T19:39:15.218Z,1.70
2022-07-29T19:44:15.778Z,1.70
2022-07-29T19:49:15.838Z,2.00
2022-07-29T19:54:17.151Z,1.70
2022-07-29T19:59:16.102Z,1.30
2022-07-29T20:04:15.238Z,1.80
2022-07-29T20:09:17.060Z,1.50
2022-07-29T20:14:18.864Z,2.10
2022-07-29T20:19:15.825Z,2.20
2022-07-29T20:24:15.149Z,1.80
2022-07-29T20:29:16.234Z,1.70
2022-07-29T20:34:16.579Z,1.70
2022-07-29T20:39:15.190Z,1.70
2022-07-29T20:44:17.990Z,1.90
2022-07-29T20:49:15.129Z,1.80
2022-07-29T20:54:16.771Z,1.60
2022-07-29T20:59:15.050Z,1.90
2022-07-29T21:04:15.745Z,1.60
2022-07-29T21:09:15.229Z,1.60
2022-07-29T21:14:25.394Z,2.10
2022-07-29T21:19:14.976Z,1.80
2022-07-29T21:24:15.298Z,1.60
2022-07-29T21:29:15.076Z,2.00
2022-07-29T21:34:15.167Z,1.60
2022-07-29T21:39:19.794Z,1.70
2022-07-29T21:44:15.067Z,1.70
2022-07-29T21:49:15.239Z,1.70
2022-07-29T21:54:15.890Z,1.50
2022-07-29T21:59:15.023Z,1.30
2022-07-29T22:04:15.109Z,2.50
2022-07-29T22:09:15.681Z,1.30
2022-07-29T22:14:17.294Z,1.30
2022-07-29T22:19:15.264Z,1.60
2022-07-29T22:22:58.687Z,1.60
2022-07-29T22:24:14.924Z,1.60
2022-07-29T22:26:57.321Z,1.50
2022-07-29T22:29:16.664Z,1.50
2022-07-29T22:34:15.073Z,1.40
2022-07-29T22:39:15.547Z,1.50
2022-07-29T22:44:15.083Z,1.60
2022-07-29T22:49:15.362Z,1.40
2022-07-29T22:51:46.121Z,1.50
2022-07-29T22:54:14.949Z,1.50
2022-07-29T22:54:15.950Z,1.50
2022-07-29T22:59:15.018Z,1.60
2022-07-29T23:04:22.618Z,1.40
2022-07-29T23:09:15.345Z,1.40
2022-07-29T23:13:41.224Z,1.30
2022-07-29T23:14:15.650Z,1.30
2022-07-29T23:19:15.655Z,2.00
2022-07-29T23:24:14.988Z,1.40
2022-07-29T23:29:14.958Z,1.50
2022-07-29T23:34:16.121Z,1.40
2022-07-29T23:39:14.963Z,1.50
2022-07-29T23:41:36.678Z,1.50
2022-07-29T23:44:14.925Z,1.50
2022-07-29T23:49:16.169Z,1.40
2022-07-29T23:54:14.944Z,1.50
2022-07-29T23:59:14.921Z,2.00
